TimeCST,TemperatureF,Dew PointF,Humidity,Sea Level PressureIn,VisibilityMPH,Wind Direction,Wind SpeedMPH,Gust SpeedMPH,PrecipitationIn,Events,Conditions,WindDirDegrees,DateUTC
12:15 AM,35.6,28.4,75,30.23,10.0,Calm,Calm,-,N/A,,Overcast,0,2012-11-14 06:15:00
12:35 AM,35.6,30.2,81,30.22,10.0,SSW,4.6,-,N/A,,Overcast,210,2012-11-14 06:35:00
12:55 AM,35.6,30.2,81,30.23,10.0,West,3.5,-,N/A,,Overcast,270,2012-11-14 06:55:00
1:15 AM,33.8,30.2,87,30.23,10.0,West,3.5,-,N/A,,Overcast,270,2012-11-14 07:15:00
1:35 AM,33.8,30.2,87,30.23,10.0,WSW,3.5,-,N/A,,Overcast,240,2012-11-14 07:35:00
1:55 AM,33.8,30.2,87,30.23,10.0,Calm,Calm,-,N/A,,Overcast,0,2012-11-14 07:55:00
2:15 AM,33.8,28.4,81,30.24,10.0,Calm,Calm,-,N/A,,Overcast,0,2012-11-14 08:15:00
2:35 AM,32.0,28.4,87,30.24,10.0,WSW,4.6,-,N/A,,Mostly Cloudy,250,2012-11-14 08:35:00
2:55 AM,32.0,30.2,93,30.25,10.0,SW,5.8,-,N/A,,Overcast,220,2012-11-14 08:55:00
3:15 AM,32.0,30.2,93,30.24,10.0,WSW,4.6,-,N/A,,Overcast,240,2012-11-14 09:15:00
3:35 AM,32.0,30.2,93,30.24,10.0,SW,5.8,-,N/A,,Mostly Cloudy,230,2012-11-14 09:35:00
3:55 AM,32.0,28.4,87,30.24,10.0,WSW,5.8,-,N/A,,Scattered Clouds,250,2012-11-14 09:55:00
4:15 AM,30.2,28.4,93,30.24,10.0,SW,5.8,-,N/A,,Partly Cloudy,230,2012-11-14 10:15:00
4:35 AM,28.4,28.4,100,30.24,10.0,Calm,Calm,-,N/A,,Partly Cloudy,0,2012-11-14 10:35:00
4:55 AM,28.4,28.4,100,30.25,10.0,SW,3.5,-,N/A,,Partly Cloudy,220,2012-11-14 10:55:00
5:15 AM,28.4,28.4,100,30.24,8.0,Calm,Calm,-,N/A,,Clear,0,2012-11-14 11:15:00
5:35 AM,26.6,26.6,100,30.25,9.0,SE,4.6,-,N/A,,Clear,140,2012-11-14 11:35:00
5:55 AM,28.4,28.4,100,30.25,9.0,Calm,Calm,-,N/A,,Clear,0,2012-11-14 11:55:00
6:15 AM,28.4,28.4,100,30.25,8.0,Calm,Calm,-,N/A,,Clear,0,2012-11-14 12:15:00
6:35 AM,24.8,24.8,100,30.24,8.0,Calm,Calm,-,N/A,,Clear,0,2012-11-14 12:35:00
6:55 AM,24.8,23.0,93,30.25,7.0,Calm,Calm,-,N/A,,Clear,0,2012-11-14 12:55:00
7:15 AM,24.8,24.8,100,30.25,5.0,WSW,4.6,-,N/A,,Clear,250,2012-11-14 13:15:00
7:35 AM,26.6,26.6,100,30.26,6.0,Calm,Calm,-,N/A,,Clear,0,2012-11-14 13:35:00
7:55 AM,26.6,24.8,93,30.26,7.0,Calm,Calm,-,N/A,,Clear,0,2012-11-14 13:55:00
8:15 AM,28.4,28.4,100,30.26,8.0,South,3.5,-,N/A,,Clear,180,2012-11-14 14:15:00
8:35 AM,32.0,28.4,87,30.26,9.0,Calm,Calm,-,N/A,,Clear,0,2012-11-14 14:35:00
8:55 AM,33.8,28.4,81,30.26,10.0,Calm,Calm,-,N/A,,Clear,0,2012-11-14 14:55:00
9:15 AM,35.6,30.2,81,30.26,10.0,SSE,5.8,-,N/A,,Clear,160,2012-11-14 15:15:00
9:35 AM,35.6,30.2,81,30.26,10.0,Calm,Calm,-,N/A,,Clear,0,2012-11-14 15:35:00
9:55 AM,39.2,30.2,70,30.25,10.0,South,3.5,-,N/A,,Clear,170,2012-11-14 15:55:00
10:15 AM,41.0,28.4,61,30.25,10.0,SSE,6.9,-,N/A,,Clear,160,2012-11-14 16:15:00
10:35 AM,42.8,28.4,57,30.25,10.0,South,8.1,-,N/A,,Clear,170,2012-11-14 16:35:00
10:55 AM,44.6,28.4,53,30.25,10.0,South,6.9,-,N/A,,Clear,170,2012-11-14 16:55:00
11:15 AM,44.6,28.4,53,30.24,10.0,South,6.9,-,N/A,,Clear,180,2012-11-14 17:15:00
11:35 AM,46.4,28.4,50,30.23,10.0,Variable,5.8,-,N/A,,Clear,0,2012-11-14 17:35:00
11:55 AM,48.2,26.6,43,30.23,10.0,South,8.1,-,N/A,,Clear,170,2012-11-14 17:55:00
12:15 PM,48.2,26.6,43,30.21,10.0,South,9.2,-,N/A,,Clear,180,2012-11-14 18:15:00
12:35 PM,48.2,28.4,46,30.21,10.0,South,9.2,-,N/A,,Clear,170,2012-11-14 18:35:00
12:55 PM,50.0,28.4,43,30.20,10.0,South,9.2,16.1,N/A,,Clear,180,2012-11-14 18:55:00
1:15 PM,50.0,30.2,47,30.20,10.0,Variable,6.9,-,N/A,,Clear,0,2012-11-14 19:15:00
1:35 PM,50.0,30.2,47,30.19,10.0,South,8.1,-,N/A,,Clear,170,2012-11-14 19:35:00
1:55 PM,50.0,30.2,47,30.19,10.0,South,9.2,-,N/A,,Clear,180,2012-11-14 19:55:00
2:15 PM,50.0,30.2,47,30.18,10.0,SSW,8.1,-,N/A,,Clear,210,2012-11-14 20:15:00
2:35 PM,50.0,30.2,47,30.18,10.0,South,9.2,-,N/A,,Clear,180,2012-11-14 20:35:00
2:55 PM,51.8,30.2,44,30.17,10.0,South,9.2,-,N/A,,Clear,180,2012-11-14 20:55:00
3:15 PM,50.0,30.2,47,30.16,10.0,South,8.1,-,N/A,,Clear,170,2012-11-14 21:15:00
3:35 PM,50.0,30.2,47,30.16,10.0,South,8.1,-,N/A,,Clear,180,2012-11-14 21:35:00
3:55 PM,50.0,32.0,50,30.16,10.0,South,8.1,-,N/A,,Clear,190,2012-11-14 21:55:00
4:15 PM,48.2,32.0,54,30.16,10.0,South,6.9,-,N/A,,Clear,170,2012-11-14 22:15:00
4:35 PM,46.4,32.0,57,30.16,10.0,South,8.1,-,N/A,,Clear,180,2012-11-14 22:35:00
4:55 PM,44.6,32.0,61,30.15,10.0,SSE,6.9,-,N/A,,Clear,160,2012-11-14 22:55:00
5:15 PM,42.8,32.0,66,30.14,10.0,South,8.1,-,N/A,,Clear,170,2012-11-14 23:15:00
5:35 PM,41.0,32.0,70,30.14,10.0,SSE,8.1,-,N/A,,Clear,150,2012-11-14 23:35:00
5:55 PM,41.0,32.0,70,30.14,10.0,SSE,5.8,-,N/A,,Clear,150,2012-11-14 23:55:00
6:15 PM,39.2,32.0,75,30.14,4.0,SE,5.8,-,N/A,,Haze,130,2012-11-15 00:15:00
6:35 PM,39.2,32.0,75,30.14,5.0,SE,5.8,-,N/A,,Haze,140,2012-11-15 00:35:00
6:55 PM,37.4,32.0,81,30.14,3.0,ESE,5.8,-,N/A,,Haze,120,2012-11-15 00:55:00
7:15 PM,37.4,30.2,75,30.14,5.0,SE,4.6,-,N/A,,Haze,140,2012-11-15 01:15:00
7:35 PM,37.4,32.0,81,30.14,6.0,ESE,5.8,-,N/A,,Haze,120,2012-11-15 01:35:00
7:55 PM,37.4,32.0,81,30.14,3.0,SE,5.8,-,N/A,,Haze,130,2012-11-15 01:55:00
8:35 PM,37.4,30.2,75,30.14,10.0,SSE,5.8,-,N/A,,Scattered Clouds,160,2012-11-15 02:35:00
8:55 PM,37.4,30.2,75,30.14,10.0,Calm,Calm,-,N/A,,Partly Cloudy,0,2012-11-15 02:55:00
9:15 PM,37.4,30.2,75,30.14,5.0,ESE,3.5,-,N/A,,Haze,110,2012-11-15 03:15:00
9:35 PM,35.6,30.2,81,30.14,5.0,SE,3.5,-,N/A,,Haze,140,2012-11-15 03:35:00
9:55 PM,37.4,30.2,75,30.13,10.0,SSE,8.1,-,N/A,,Clear,160,2012-11-15 03:55:00
10:15 PM,37.4,30.2,75,30.13,10.0,South,10.4,-,N/A,,Clear,180,2012-11-15 04:15:00
10:35 PM,37.4,30.2,75,30.13,10.0,South,9.2,-,N/A,,Clear,180,2012-11-15 04:35:00
10:55 PM,35.6,28.4,75,30.13,10.0,South,8.1,-,N/A,,Clear,180,2012-11-15 04:55:00
11:15 PM,35.6,28.4,75,30.13,10.0,South,8.1,-,N/A,,Clear,180,2012-11-15 05:15:00
11:35 PM,37.4,28.4,70,30.13,10.0,South,10.4,-,N/A,,Clear,190,2012-11-15 05:35:00
11:55 PM,37.4,28.4,70,30.13,10.0,South,10.4,-,N/A,,Clear,180,2012-11-15 05:55:00